createdAt,value
2018-08-30T00:00:34.831Z,55.65
2018-08-30T00:01:34.857Z,55.07
2018-08-30T00:02:34.885Z,55.16
2018-08-30T00:03:34.913Z,55.35
2018-08-30T00:04:34.941Z,55.26
2018-08-30T00:05:34.982Z,56.03
2018-08-30T00:06:35.009Z,56.12
2018-08-30T00:07:35.038Z,55.55
2018-08-30T00:08:35.095Z,55.93
2018-08-30T00:09:35.085Z,55.55
2018-08-30T00:10:35.128Z,56.03
2018-08-30T00:11:35.139Z,55.35
2018-08-30T00:12:35.174Z,55.65
2018-08-30T00:13:35.210Z,55.74
2018-08-30T00:14:35.229Z,55.65
2018-08-30T00:15:35.267Z,55.65
2018-08-30T00:16:35.285Z,55.74
2018-08-30T00:17:35.430Z,55.65
2018-08-30T00:18:35.346Z,56.12
2018-08-30T00:19:35.417Z,56.03
2018-08-30T00:20:35.404Z,56.22
2018-08-30T00:21:35.451Z,55.65
2018-08-30T00:22:35.456Z,55.45
2018-08-30T00:23:35.482Z,55.62
2018-08-30T00:24:35.508Z,56.12
2018-08-30T00:25:35.542Z,56.03
2018-08-30T00:26:35.573Z,55.93
2018-08-30T00:27:35.603Z,56.29
2018-08-30T00:28:35.700Z,56.38
2018-08-30T00:29:35.656Z,56.10
2018-08-30T00:30:35.689Z,56.10
2018-08-30T00:31:35.724Z,56.00
2018-08-30T00:32:35.754Z,56.00
2018-08-30T00:33:35.775Z,55.90
2018-08-30T00:34:35.804Z,55.90
2018-08-30T00:35:35.837Z,56.29
2018-08-30T00:36:35.858Z,55.71
2018-08-30T00:37:35.892Z,56.20
2018-08-30T00:38:35.911Z,56.20
2018-08-30T00:39:35.968Z,56.29
2018-08-30T00:40:35.967Z,55.52
2018-08-30T00:41:35.997Z,55.81
2018-08-30T00:42:36.023Z,56.10
2018-08-30T00:43:36.056Z,56.00
2018-08-30T00:44:36.107Z,55.71
2018-08-30T00:45:36.115Z,56.58
2018-08-30T00:46:36.139Z,56.29
2018-08-30T00:47:36.164Z,55.90
2018-08-30T00:48:36.192Z,55.81
2018-08-30T00:49:36.225Z,56.58
2018-08-30T00:50:36.249Z,55.90
2018-08-30T00:51:36.286Z,56.38
2018-08-30T00:52:36.308Z,56.38
2018-08-30T00:53:36.333Z,56.48
2018-08-30T00:54:36.378Z,56.67
2018-08-30T00:55:36.400Z,56.67
2018-08-30T00:56:36.426Z,56.77
2018-08-30T00:57:36.450Z,57.25
2018-08-30T00:58:36.479Z,56.96
2018-08-30T00:59:36.506Z,56.38
2018-08-30T01:00:36.537Z,57.06
2018-08-30T01:01:36.577Z,56.58
2018-08-30T01:02:36.598Z,56.55
2018-08-30T01:03:36.631Z,56.87
2018-08-30T01:04:36.649Z,56.84
2018-08-30T01:05:36.680Z,57.25
2018-08-30T01:06:36.711Z,57.32
2018-08-30T01:07:36.734Z,56.65
2018-08-30T01:08:36.875Z,56.48
2018-08-30T01:09:36.787Z,57.22
2018-08-30T01:10:36.830Z,57.03
2018-08-30T01:11:36.850Z,56.93
2018-08-30T01:12:36.876Z,57.03
2018-08-30T01:13:36.908Z,57.22
2018-08-30T01:14:36.931Z,57.42
2018-08-30T01:15:36.960Z,57.42
2018-08-30T01:16:36.999Z,56.93
2018-08-30T01:17:37.017Z,57.22
2018-08-30T01:18:37.049Z,57.60
2018-08-30T01:19:37.191Z,57.22
2018-08-30T01:20:37.104Z,57.60
2018-08-30T01:21:37.166Z,56.93
2018-08-30T01:22:37.162Z,57.60
2018-08-30T01:23:37.187Z,57.32
2018-08-30T01:24:37.216Z,57.70
2018-08-30T01:25:37.241Z,57.32
2018-08-30T01:26:37.273Z,57.03
2018-08-30T01:27:37.306Z,56.93
2018-08-30T01:28:37.338Z,57.80
2018-08-30T01:29:37.364Z,57.42
2018-08-30T01:30:37.404Z,57.42
2018-08-30T01:31:37.415Z,57.22
2018-08-30T01:32:37.457Z,58.28
2018-08-30T01:33:37.477Z,57.60
2018-08-30T01:34:37.502Z,58.09
2018-08-30T01:35:37.528Z,57.22
2018-08-30T01:36:37.555Z,57.80
2018-08-30T01:37:37.593Z,58.18
2018-08-30T01:38:37.614Z,57.80
2018-08-30T01:39:37.640Z,57.80
2018-08-30T01:40:37.682Z,58.09
2018-08-30T01:41:37.759Z,57.42
2018-08-30T01:42:37.733Z,57.42
2018-08-30T01:43:37.754Z,57.99
2018-08-30T01:44:37.779Z,58.28
2018-08-30T01:45:37.808Z,58.09
2018-08-30T01:46:37.837Z,58.37
2018-08-30T01:47:37.864Z,58.54
2018-08-30T01:48:37.901Z,58.15
2018-08-30T01:49:37.922Z,58.25
2018-08-30T01:50:37.957Z,58.35
2018-08-30T01:51:37.980Z,58.25
2018-08-30T01:52:38.007Z,59.41
2018-08-30T01:53:38.034Z,59.12
2018-08-30T01:54:38.071Z,58.73
2018-08-30T01:55:38.097Z,59.22
2018-08-30T01:56:38.118Z,58.73
2018-08-30T01:57:38.150Z,58.83
2018-08-30T01:58:38.173Z,58.73
2018-08-30T01:59:38.206Z,59.31
2018-08-30T02:00:38.228Z,59.12
2018-08-30T02:01:38.262Z,58.73
2018-08-30T02:02:38.302Z,59.02
2018-08-30T02:03:38.333Z,59.31
2018-08-30T02:04:38.345Z,58.83
2018-08-30T02:05:38.379Z,58.83
2018-08-30T02:06:38.402Z,59.31
2018-08-30T02:07:38.433Z,59.12
2018-08-30T02:08:38.468Z,58.92
2018-08-30T02:09:38.497Z,59.12
2018-08-30T02:10:38.517Z,59.12
2018-08-30T02:11:38.549Z,58.83
2018-08-30T02:12:38.569Z,58.83
2018-08-30T02:13:38.600Z,59.31
2018-08-30T02:14:38.634Z,59.28
2018-08-30T02:15:38.654Z,58.99
2018-08-30T02:16:38.690Z,59.09
2018-08-30T02:17:38.718Z,58.99
2018-08-30T02:18:38.744Z,59.09
2018-08-30T02:19:38.767Z,59.47
2018-08-30T02:20:38.792Z,59.66
2018-08-30T02:21:38.832Z,60.05
2018-08-30T02:22:38.852Z,59.95
2018-08-30T02:23:38.880Z,60.05
2018-08-30T02:24:38.908Z,60.05
2018-08-30T02:25:38.933Z,59.95
2018-08-30T02:26:38.968Z,59.66
2018-08-30T02:27:39.029Z,59.76
2018-08-30T02:28:39.020Z,59.95
2018-08-30T02:29:39.045Z,59.95
2018-08-30T02:30:39.074Z,59.66
2018-08-30T02:31:39.107Z,60.05
2018-08-30T02:32:39.730Z,60.05
2018-08-30T02:33:39.162Z,60.24
2018-08-30T02:34:39.193Z,59.86
2018-08-30T02:35:39.216Z,60.72
2018-08-30T02:36:39.244Z,60.24
2018-08-30T02:37:39.274Z,60.72
2018-08-30T02:38:39.302Z,60.72
2018-08-30T02:39:39.334Z,60.63
2018-08-30T02:40:39.353Z,60.14
2018-08-30T02:41:39.379Z,60.34
2018-08-30T02:42:39.412Z,60.53
2018-08-30T02:43:39.504Z,60.53
2018-08-30T02:44:39.469Z,60.72
2018-08-30T02:45:39.501Z,60.53
2018-08-30T02:46:39.533Z,60.43
2018-08-30T02:47:39.548Z,60.34
2018-08-30T02:48:39.580Z,60.82
2018-08-30T02:49:39.614Z,60.43
2018-08-30T02:50:39.637Z,59.31
2018-08-30T02:51:39.666Z,59.99
2018-08-30T02:52:39.700Z,59.79
2018-08-30T02:53:39.718Z,59.38
2018-08-30T02:54:39.783Z,60.14
2018-08-30T02:55:39.793Z,60.72
2018-08-30T02:56:39.815Z,60.24
2018-08-30T02:57:39.837Z,60.82
2018-08-30T02:58:39.859Z,60.91
2018-08-30T02:59:39.888Z,60.43
2018-08-30T03:00:39.917Z,61.01
2018-08-30T03:01:39.946Z,60.91
2018-08-30T03:02:39.980Z,60.72
2018-08-30T03:03:40.013Z,61.01
2018-08-30T03:04:40.029Z,60.63
2018-08-30T03:05:40.057Z,61.40
2018-08-30T03:06:40.085Z,60.91
2018-08-30T03:07:40.116Z,61.01
2018-08-30T03:08:40.149Z,60.72
2018-08-30T03:09:40.165Z,61.11
2018-08-30T03:10:40.207Z,60.72
2018-08-30T03:11:40.221Z,61.01
2018-08-30T03:12:40.254Z,60.82
2018-08-30T03:13:40.284Z,61.87
2018-08-30T03:14:40.316Z,61.20
2018-08-30T03:15:40.340Z,60.91
2018-08-30T03:16:40.357Z,60.82
2018-08-30T03:17:40.393Z,60.60
2018-08-30T03:18:40.426Z,61.20
2018-08-30T03:19:40.452Z,60.63
2018-08-30T03:20:40.484Z,60.91
2018-08-30T03:21:40.500Z,61.78
2018-08-30T03:22:40.528Z,61.01
2018-08-30T03:23:40.558Z,61.01
2018-08-30T03:24:40.586Z,60.69
2018-08-30T03:25:40.615Z,61.75
2018-08-30T03:26:40.645Z,60.82
2018-08-30T03:27:40.678Z,61.40
2018-08-30T03:28:40.696Z,60.72
2018-08-30T03:29:40.727Z,61.30
2018-08-30T03:30:40.854Z,62.16
2018-08-30T03:31:40.782Z,61.78
2018-08-30T03:32:40.826Z,61.78
2018-08-30T03:33:40.845Z,61.40
2018-08-30T03:34:41.754Z,61.78
2018-08-30T03:35:40.896Z,61.78
2018-08-30T03:36:40.927Z,61.97
2018-08-30T03:37:40.996Z,62.45
2018-08-30T03:38:40.982Z,62.35
2018-08-30T03:39:41.007Z,62.45
2018-08-30T03:40:41.041Z,62.26
2018-08-30T03:41:41.059Z,62.93
2018-08-30T03:42:41.089Z,62.35
2018-08-30T03:43:41.116Z,62.55
2018-08-30T03:44:41.148Z,61.97
2018-08-30T03:45:41.254Z,61.97
2018-08-30T03:46:41.198Z,62.07
2018-08-30T03:47:41.233Z,62.35
2018-08-30T03:48:41.256Z,62.16
2018-08-30T03:49:41.281Z,63.02
2018-08-30T03:50:41.321Z,62.84
2018-08-30T03:51:41.340Z,63.28
2018-08-30T03:52:41.366Z,62.74
2018-08-30T03:53:41.396Z,62.90
2018-08-30T03:54:41.484Z,63.09
2018-08-30T03:55:41.449Z,62.55
2018-08-30T03:56:41.539Z,62.61
2018-08-30T03:57:41.508Z,63.60
2018-08-30T03:58:41.538Z,63.38
2018-08-30T03:59:41.561Z,63.57
2018-08-30T04:00:41.590Z,62.71
2018-08-30T04:01:41.614Z,62.99
2018-08-30T04:02:41.643Z,62.71
2018-08-30T04:03:41.675Z,63.28
2018-08-30T04:04:41.698Z,62.71
2018-08-30T04:05:41.831Z,62.93
2018-08-30T04:06:41.755Z,62.32
2018-08-30T04:07:41.852Z,62.81
2018-08-30T04:08:41.811Z,62.84
2018-08-30T04:09:41.842Z,62.84
2018-08-30T04:10:41.865Z,62.99
2018-08-30T04:11:41.896Z,62.93
2018-08-30T04:12:41.922Z,62.84
2018-08-30T04:13:41.991Z,62.16
2018-08-30T04:14:41.977Z,61.78
2018-08-30T04:15:42.007Z,62.58
2018-08-30T04:16:42.033Z,61.61
2018-08-30T04:17:42.067Z,61.91
2018-08-30T04:18:42.085Z,64.22
2018-08-30T04:19:42.113Z,66.10
2018-08-30T04:20:42.148Z,66.10
2018-08-30T04:21:42.182Z,66.10
2018-08-30T04:22:42.204Z,65.05
2018-08-30T04:23:42.230Z,62.48
2018-08-30T04:24:42.260Z,62.29
2018-08-30T04:25:42.286Z,64.18
2018-08-30T04:26:42.320Z,65.91
2018-08-30T04:27:42.343Z,66.20
2018-08-30T04:28:42.364Z,66.00
2018-08-30T04:29:42.425Z,66.20
2018-08-30T04:30:42.426Z,66.39
2018-08-30T04:31:42.459Z,62.87
2018-08-30T04:32:42.502Z,62.29
2018-08-30T04:33:42.506Z,64.28
2018-08-30T04:34:42.551Z,65.23
2018-08-30T04:35:42.562Z,66.30
2018-08-30T04:36:42.598Z,66.20
2018-08-30T04:37:42.615Z,65.97
2018-08-30T04:38:42.648Z,66.26
2018-08-30T04:39:42.676Z,66.07
2018-08-30T04:40:42.703Z,66.30
2018-08-30T04:41:42.735Z,63.22
2018-08-30T04:42:42.773Z,65.23
2018-08-30T04:43:42.787Z,65.62
2018-08-30T04:44:42.815Z,66.10
2018-08-30T04:45:42.842Z,66.58
2018-08-30T04:46:42.883Z,66.07
2018-08-30T04:47:42.918Z,67.03
2018-08-30T04:48:42.919Z,66.74
2018-08-30T04:49:42.948Z,66.87
2018-08-30T04:50:42.977Z,67.22
2018-08-30T04:51:43.010Z,67.32
2018-08-30T04:52:43.042Z,66.26
2018-08-30T04:53:43.071Z,67.41
2018-08-30T04:54:43.092Z,67.90
2018-08-30T04:55:43.116Z,68.08
2018-08-30T04:56:43.150Z,67.61
2018-08-30T04:57:43.181Z,68.08
2018-08-30T04:58:43.202Z,67.41
2018-08-30T04:59:43.234Z,67.22
2018-08-30T05:00:43.256Z,67.25
2018-08-30T05:01:43.303Z,68.12
2018-08-30T05:02:43.324Z,67.83
2018-08-30T05:03:43.336Z,67.07
2018-08-30T05:04:43.367Z,66.97
2018-08-30T05:05:43.396Z,66.77
2018-08-30T05:06:43.435Z,67.54
2018-08-30T05:07:43.455Z,67.07
2018-08-30T05:08:43.484Z,67.07
2018-08-30T05:09:43.538Z,66.87
2018-08-30T05:10:43.535Z,67.83
2018-08-30T05:11:43.771Z,65.62
2018-08-30T05:12:43.599Z,64.98
2018-08-30T05:13:43.624Z,64.47
2018-08-30T05:14:43.649Z,64.95
2018-08-30T05:15:43.682Z,67.00
2018-08-30T05:16:43.708Z,67.16
2018-08-30T05:17:43.733Z,66.68
2018-08-30T05:18:44.279Z,64.50
2018-08-30T05:19:43.792Z,62.87
2018-08-30T05:20:43.834Z,63.83
2018-08-30T05:21:43.848Z,66.14
2018-08-30T05:22:43.877Z,66.52
2018-08-30T05:23:43.908Z,67.35
2018-08-30T05:24:43.920Z,66.68
2018-08-30T05:25:43.971Z,67.35
2018-08-30T05:26:43.991Z,67.54
2018-08-30T05:27:44.030Z,68.21
2018-08-30T05:28:44.047Z,69.18
2018-08-30T05:29:44.081Z,68.79
2018-08-30T05:30:44.092Z,68.51
2018-08-30T05:31:44.117Z,68.21
2018-08-30T05:32:44.161Z,68.60
2018-08-30T05:33:44.209Z,68.60
2018-08-30T05:34:44.213Z,68.79
2018-08-30T05:35:44.289Z,68.89
2018-08-30T05:36:44.254Z,68.12
2018-08-30T05:37:44.297Z,65.84
2018-08-30T05:38:44.315Z,64.92
2018-08-30T05:39:44.344Z,67.00
2018-08-30T05:40:44.366Z,67.86
2018-08-30T05:41:44.394Z,67.00
2018-08-30T05:42:44.422Z,64.31
2018-08-30T05:43:44.454Z,65.75
2018-08-30T05:44:44.559Z,66.91
2018-08-30T05:45:44.503Z,65.37
2018-08-30T05:46:44.533Z,64.89
2018-08-30T05:47:44.559Z,67.19
2018-08-30T05:48:44.586Z,68.44
2018-08-30T05:49:44.622Z,68.63
2018-08-30T05:50:44.650Z,68.44
2018-08-30T05:51:44.678Z,65.69
2018-08-30T05:52:44.706Z,65.20
2018-08-30T05:53:44.736Z,64.92
2018-08-30T05:54:44.757Z,65.50
2018-08-30T05:55:44.784Z,64.34
2018-08-30T05:56:44.839Z,66.55
2018-08-30T05:57:44.846Z,66.74
2018-08-30T05:58:44.868Z,67.77
2018-08-30T05:59:44.906Z,68.54
2018-08-30T06:00:44.946Z,69.21
2018-08-30T06:01:44.958Z,69.40
2018-08-30T06:02:44.989Z,69.79
2018-08-30T06:03:45.005Z,69.69
2018-08-30T06:04:45.036Z,70.14
2018-08-30T06:05:45.067Z,69.50
2018-08-30T06:06:45.091Z,69.98
2018-08-30T06:07:45.138Z,70.07
2018-08-30T06:08:45.146Z,69.50
2018-08-30T06:09:45.182Z,70.23
2018-08-30T06:10:45.206Z,70.56
2018-08-30T06:11:45.810Z,70.37
2018-08-30T06:12:45.257Z,69.60
2018-08-30T06:13:45.288Z,70.27
2018-08-30T06:14:45.319Z,70.56
2018-08-30T06:15:45.340Z,70.27
2018-08-30T06:16:45.366Z,70.07
2018-08-30T06:17:45.402Z,70.07
2018-08-30T06:18:45.423Z,69.50
2018-08-30T06:19:45.453Z,68.63
2018-08-30T06:20:46.295Z,68.06
2018-08-30T06:21:45.505Z,66.65
2018-08-30T06:22:45.582Z,66.74
2018-08-30T06:23:45.565Z,66.88
2018-08-30T06:24:45.594Z,66.49
2018-08-30T06:25:45.619Z,66.49
2018-08-30T06:26:45.695Z,66.49
2018-08-30T06:27:45.681Z,65.81
2018-08-30T06:28:45.711Z,66.39
2018-08-30T06:29:45.730Z,67.65
2018-08-30T06:30:45.824Z,67.93
2018-08-30T06:31:45.858Z,67.07
2018-08-30T06:32:45.844Z,67.07
2018-08-30T06:33:45.869Z,67.26
2018-08-30T06:34:46.004Z,66.30
2018-08-30T06:35:45.894Z,65.91
2018-08-30T06:36:45.927Z,65.46
2018-08-30T06:37:45.962Z,66.88
2018-08-30T06:38:46.054Z,66.39
2018-08-30T06:39:46.007Z,65.91
2018-08-30T06:40:46.043Z,66.52
2018-08-30T06:41:46.068Z,65.17
2018-08-30T06:42:46.091Z,65.08
2018-08-30T06:43:46.121Z,65.17
2018-08-30T06:44:46.155Z,65.08
2018-08-30T06:45:46.174Z,64.69
2018-08-30T06:46:46.213Z,65.27
2018-08-30T06:47:46.227Z,64.02
2018-08-30T06:48:46.310Z,63.34
2018-08-30T06:49:46.287Z,62.77
2018-08-30T06:50:46.328Z,62.96
2018-08-30T06:51:46.343Z,63.06
2018-08-30T06:52:46.371Z,63.09
2018-08-30T06:53:46.404Z,62.99
2018-08-30T06:54:46.425Z,63.76
2018-08-30T06:55:46.456Z,63.67
2018-08-30T06:56:46.500Z,63.73
2018-08-30T06:57:46.505Z,63.85
2018-08-30T06:58:46.535Z,63.67
2018-08-30T06:59:46.560Z,64.63
2018-08-30T07:00:46.597Z,64.43
2018-08-30T07:01:46.638Z,64.43
2018-08-30T07:02:46.653Z,64.50
2018-08-30T07:03:46.689Z,65.40
2018-08-30T07:04:46.710Z,64.82
2018-08-30T07:05:46.740Z,64.92
2018-08-30T07:06:46.771Z,65.11
2018-08-30T07:07:46.788Z,65.40
2018-08-30T07:08:46.824Z,65.50
2018-08-30T07:09:46.852Z,65.50
2018-08-30T07:10:47.184Z,66.55
2018-08-30T07:11:46.939Z,66.55
2018-08-30T07:12:47.153Z,66.75
2018-08-30T07:13:47.000Z,67.13
2018-08-30T07:15:47.677Z,66.94
2018-08-30T07:16:47.953Z,66.81
2018-08-30T07:17:47.080Z,67.42
2018-08-30T07:18:47.101Z,67.33
2018-08-30T07:19:47.124Z,67.61
2018-08-30T07:20:47.154Z,67.23
2018-08-30T07:21:47.192Z,67.52
2018-08-30T07:22:47.207Z,67.23
2018-08-30T07:23:47.245Z,67.90
2018-08-30T07:24:47.277Z,67.71
2018-08-30T07:25:47.292Z,67.81
2018-08-30T07:26:47.322Z,67.90
2018-08-30T07:27:47.350Z,69.51
2018-08-30T07:28:47.368Z,69.70
2018-08-30T07:29:47.399Z,70.28
2018-08-30T07:30:47.427Z,69.99
2018-08-30T07:31:47.460Z,69.73
2018-08-30T07:33:47.515Z,69.45
2018-08-30T07:34:47.590Z,70.21
2018-08-30T07:35:47.568Z,70.70
2018-08-30T07:36:47.606Z,70.12
2018-08-30T07:37:47.627Z,70.21
2018-08-30T07:38:47.655Z,70.41
2018-08-30T07:39:47.678Z,70.21
2018-08-30T07:40:47.709Z,70.41
2018-08-30T07:41:47.737Z,70.79
2018-08-30T07:42:47.768Z,70.50
2018-08-30T07:43:47.800Z,70.21
2018-08-30T07:44:47.822Z,70.12
2018-08-30T07:45:47.852Z,70.31
2018-08-30T07:46:47.873Z,71.08
2018-08-30T07:47:47.907Z,70.89
2018-08-30T07:48:47.929Z,70.79
2018-08-30T07:49:47.959Z,71.28
2018-08-30T07:50:48.044Z,71.18
2018-08-30T07:51:48.026Z,71.18
2018-08-30T07:52:48.040Z,70.89
2018-08-30T07:53:48.082Z,71.08
2018-08-30T07:54:48.099Z,71.14
2018-08-30T07:55:48.126Z,71.76
2018-08-30T07:56:48.153Z,71.76
2018-08-30T07:57:48.180Z,71.76
2018-08-30T07:58:48.214Z,70.66
2018-08-30T07:59:48.239Z,71.85
2018-08-30T08:00:48.292Z,72.33
2018-08-30T08:01:48.294Z,72.81
2018-08-30T08:02:48.322Z,72.72
2018-08-30T08:03:48.354Z,73.39
2018-08-30T08:04:48.374Z,73.39
2018-08-30T08:05:48.456Z,73.20
2018-08-30T08:06:48.435Z,73.30
2018-08-30T08:07:48.464Z,73.30
2018-08-30T08:08:48.489Z,74.07
2018-08-30T08:09:48.520Z,74.55
2018-08-30T08:10:48.548Z,75.90
2018-08-30T08:11:48.584Z,75.71
2018-08-30T08:12:48.662Z,75.71
2018-08-30T08:13:48.636Z,77.15
2018-08-30T08:14:48.669Z,75.80
2018-08-30T08:15:48.684Z,77.34
2018-08-30T08:16:48.711Z,77.34
2018-08-30T08:17:48.743Z,77.11
2018-08-30T08:18:48.783Z,77.11
2018-08-30T08:19:48.812Z,77.98
2018-08-30T08:20:48.820Z,78.02
2018-08-30T08:21:48.851Z,78.88
2018-08-30T08:22:48.878Z,78.79
2018-08-30T08:23:48.903Z,78.46
2018-08-30T08:24:48.956Z,79.08
2018-08-30T08:25:48.965Z,79.08
2018-08-30T08:26:49.079Z,78.59
2018-08-30T08:27:49.016Z,79.33
2018-08-30T08:28:49.053Z,78.46
2018-08-30T08:29:49.076Z,78.94
2018-08-30T08:30:49.100Z,80.10
2018-08-30T08:31:49.128Z,80.38
2018-08-30T08:32:49.167Z,80.58
2018-08-30T08:33:49.183Z,80.58
2018-08-30T08:34:49.220Z,80.58
2018-08-30T08:35:49.241Z,80.58
2018-08-30T08:36:49.280Z,81.54
2018-08-30T08:37:49.391Z,81.63
2018-08-30T08:38:49.328Z,81.16
2018-08-30T08:39:49.355Z,82.12
2018-08-30T08:40:49.398Z,82.21
2018-08-30T08:41:49.407Z,82.70
2018-08-30T08:42:49.434Z,82.02
2018-08-30T08:43:49.462Z,83.08
2018-08-30T08:44:49.501Z,83.08
2018-08-30T08:45:49.518Z,82.89
2018-08-30T08:46:49.549Z,82.98
2018-08-30T08:47:49.651Z,82.50
2018-08-30T08:48:49.675Z,83.56
2018-08-30T08:49:49.649Z,83.66
2018-08-30T08:50:49.684Z,83.47
2018-08-30T08:51:49.690Z,84.81
2018-08-30T08:52:49.712Z,84.33
2018-08-30T08:53:49.803Z,84.14
2018-08-30T08:54:49.774Z,84.23
2018-08-30T08:55:49.805Z,85.20
2018-08-30T08:56:49.825Z,85.00
2018-08-30T08:57:49.878Z,84.81
2018-08-30T08:58:49.938Z,84.81
2018-08-30T08:59:49.908Z,84.91
2018-08-30T09:00:49.937Z,83.75
2018-08-30T09:01:49.965Z,84.14
2018-08-30T09:02:49.986Z,85.10
2018-08-30T09:03:50.026Z,85.78
2018-08-30T09:04:50.056Z,85.68
2018-08-30T09:05:50.076Z,85.58
2018-08-30T09:06:50.111Z,85.39
2018-08-30T09:07:50.182Z,85.78
2018-08-30T09:08:50.153Z,85.49
2018-08-30T09:09:50.186Z,84.91
2018-08-30T09:10:50.221Z,85.58
2018-08-30T09:11:50.240Z,84.91
2018-08-30T09:12:50.275Z,84.33
2018-08-30T09:13:50.298Z,84.62
2018-08-30T09:14:50.323Z,84.91
2018-08-30T09:15:50.354Z,84.23
2018-08-30T09:16:50.377Z,84.91
2018-08-30T09:17:50.413Z,85.49
2018-08-30T09:18:50.432Z,84.23
2018-08-30T09:19:50.469Z,84.81
2018-08-30T09:20:50.503Z,84.72
2018-08-30T09:21:50.515Z,85.58
2018-08-30T09:22:50.547Z,84.91
2018-08-30T09:23:50.611Z,84.23
2018-08-30T09:24:50.598Z,84.72
2018-08-30T09:25:50.638Z,84.23
2018-08-30T09:26:50.726Z,85.00
2018-08-30T09:27:50.698Z,85.30
2018-08-30T09:28:50.727Z,83.95
2018-08-30T09:29:50.739Z,84.14
2018-08-30T09:30:50.823Z,84.91
2018-08-30T09:31:50.796Z,84.05
2018-08-30T09:32:50.825Z,84.81
2018-08-30T09:33:50.874Z,84.14
2018-08-30T09:34:50.882Z,84.91
2018-08-30T09:35:50.907Z,84.33
2018-08-30T09:36:50.931Z,84.43
2018-08-30T09:37:50.964Z,84.72
2018-08-30T09:38:50.985Z,84.14
2018-08-30T09:39:51.853Z,83.95
2018-08-30T09:40:51.050Z,84.62
2018-08-30T09:41:51.076Z,84.81
2018-08-30T09:42:51.103Z,85.00
2018-08-30T09:43:51.159Z,84.72
2018-08-30T09:44:51.154Z,85.10
2018-08-30T09:45:51.199Z,85.54
2018-08-30T09:46:51.226Z,85.78
2018-08-30T09:47:51.240Z,85.25
2018-08-30T09:48:51.272Z,85.16
2018-08-30T09:49:51.371Z,85.16
2018-08-30T09:50:51.343Z,85.54
2018-08-30T09:51:51.353Z,84.77
2018-08-30T09:52:51.395Z,85.06
2018-08-30T09:53:51.398Z,84.97
2018-08-30T09:54:51.431Z,84.97
2018-08-30T09:55:51.464Z,84.97
2018-08-30T09:56:51.583Z,85.35
2018-08-30T09:57:51.518Z,85.00
2018-08-30T09:58:51.542Z,84.77
2018-08-30T09:59:51.569Z,85.54
2018-08-30T10:00:51.596Z,85.39
2018-08-30T10:01:51.632Z,84.81
2018-08-30T10:02:51.654Z,83.85
2018-08-30T10:03:51.712Z,84.43
2018-08-30T10:04:51.711Z,84.14
2018-08-30T10:05:51.744Z,84.33
2018-08-30T10:06:51.764Z,84.23
2018-08-30T10:07:51.793Z,85.00
2018-08-30T10:08:51.827Z,84.29
2018-08-30T10:09:51.846Z,83.81
2018-08-30T10:10:51.876Z,84.43
2018-08-30T10:11:51.896Z,84.23
2018-08-30T10:12:51.945Z,84.97
2018-08-30T10:13:51.950Z,85.58
2018-08-30T10:14:51.982Z,86.45
2018-08-30T10:15:52.082Z,85.39
2018-08-30T10:16:52.043Z,85.20
2018-08-30T10:17:52.078Z,85.10
2018-08-30T10:18:52.093Z,85.20
2018-08-30T10:19:52.122Z,84.72
2018-08-30T10:20:52.163Z,85.68
2018-08-30T10:21:52.173Z,85.68
2018-08-30T10:22:52.207Z,85.39
2018-08-30T10:23:52.236Z,84.91
2018-08-30T10:24:52.271Z,85.49
2018-08-30T10:25:52.304Z,85.58
2018-08-30T10:26:52.310Z,86.26
2018-08-30T10:27:52.341Z,85.39
2018-08-30T10:28:52.367Z,85.10
2018-08-30T10:29:52.409Z,85.68
2018-08-30T10:30:52.431Z,86.26
2018-08-30T10:31:52.494Z,85.49
2018-08-30T10:32:52.493Z,86.07
2018-08-30T10:33:52.505Z,85.68
2018-08-30T10:34:52.540Z,85.30
2018-08-30T10:35:52.576Z,85.30
2018-08-30T10:36:52.650Z,85.39
2018-08-30T10:37:52.630Z,85.49
2018-08-30T10:38:52.646Z,85.58
2018-08-30T10:39:52.689Z,84.91
2018-08-30T10:40:52.728Z,85.78
2018-08-30T10:41:52.729Z,85.58
2018-08-30T10:42:52.764Z,85.39
2018-08-30T10:43:52.788Z,85.00
2018-08-30T10:44:52.815Z,86.26
2018-08-30T10:45:52.858Z,85.58
2018-08-30T10:46:52.875Z,85.49
2018-08-30T10:47:52.891Z,85.68
2018-08-30T10:48:52.923Z,86.26
2018-08-30T10:49:52.986Z,85.97
2018-08-30T10:50:52.989Z,86.07
2018-08-30T10:51:53.006Z,86.55
2018-08-30T10:52:53.038Z,84.91
2018-08-30T10:53:53.055Z,85.39
2018-08-30T10:54:53.136Z,84.43
2018-08-30T10:55:53.133Z,84.72
2018-08-30T10:56:53.145Z,84.43
2018-08-30T10:57:53.178Z,84.81
2018-08-30T10:58:53.196Z,84.81
2018-08-30T10:59:53.228Z,84.91
2018-08-30T11:00:53.267Z,85.49
2018-08-30T11:01:53.304Z,84.81
2018-08-30T11:02:53.313Z,85.00
2018-08-30T11:03:53.364Z,85.49
2018-08-30T11:04:53.370Z,85.49
2018-08-30T11:05:53.396Z,85.39
2018-08-30T11:06:53.421Z,87.32
2018-08-30T11:07:53.473Z,86.45
2018-08-30T11:08:53.474Z,86.16
2018-08-30T11:09:53.521Z,86.07
2018-08-30T11:10:53.536Z,86.55
2018-08-30T11:11:53.558Z,86.83
2018-08-30T11:12:53.642Z,86.65
2018-08-30T11:13:53.618Z,86.74
2018-08-30T11:14:53.657Z,86.55
2018-08-30T11:15:53.676Z,87.51
2018-08-30T11:16:53.703Z,87.03
2018-08-30T11:17:53.741Z,87.90
2018-08-30T11:18:53.752Z,87.70
2018-08-30T11:19:53.781Z,87.12
2018-08-30T11:20:53.816Z,86.74
2018-08-30T11:21:53.839Z,87.70
2018-08-30T11:22:53.869Z,87.99
2018-08-30T11:23:53.890Z,87.41
2018-08-30T11:24:53.930Z,87.22
2018-08-30T11:25:53.974Z,86.93
2018-08-30T11:26:53.973Z,87.32
2018-08-30T11:27:54.005Z,87.60
2018-08-30T11:28:54.036Z,87.70
2018-08-30T11:29:54.063Z,87.99
2018-08-30T11:30:54.087Z,87.51
2018-08-30T11:31:54.113Z,87.51
2018-08-30T11:32:54.139Z,87.03
2018-08-30T11:33:54.175Z,87.70
2018-08-30T11:34:54.199Z,88.09
2018-08-30T11:35:54.252Z,87.90
2018-08-30T11:36:54.246Z,87.90
2018-08-30T11:37:54.291Z,87.80
2018-08-30T11:38:54.305Z,87.99
2018-08-30T11:39:54.339Z,87.70
2018-08-30T11:40:54.379Z,88.09
2018-08-30T11:41:54.387Z,87.80
2018-08-30T11:42:54.414Z,88.38
2018-08-30T11:43:54.441Z,87.90
2018-08-30T11:44:54.475Z,88.09
2018-08-30T11:45:54.507Z,87.90
2018-08-30T11:46:54.525Z,87.60
2018-08-30T11:47:54.561Z,88.28
2018-08-30T11:48:54.583Z,87.90
2018-08-30T11:49:54.615Z,87.03
2018-08-30T11:50:54.644Z,87.70
2018-08-30T11:51:54.703Z,87.12
2018-08-30T11:52:54.703Z,87.03
2018-08-30T11:53:54.757Z,87.22
2018-08-30T11:54:54.750Z,87.41
2018-08-30T11:55:54.777Z,87.99
2018-08-30T11:56:54.801Z,87.22
2018-08-30T11:57:54.837Z,87.32
2018-08-30T11:58:54.858Z,87.22
2018-08-30T11:59:54.885Z,87.03
2018-08-30T12:00:54.963Z,86.45
2018-08-30T12:01:54.940Z,87.32
2018-08-30T12:02:54.968Z,87.12
2018-08-30T12:03:54.999Z,86.45
2018-08-30T12:04:55.026Z,85.10
2018-08-30T12:05:55.112Z,85.58
2018-08-30T12:06:55.134Z,85.63
2018-08-30T12:07:55.204Z,85.43
2018-08-30T12:08:55.147Z,84.95
2018-08-30T12:09:56.844Z,85.05
2018-08-30T12:10:55.308Z,85.43
2018-08-30T12:11:55.226Z,85.63
2018-08-30T12:12:55.252Z,85.05
2018-08-30T12:13:55.286Z,83.99
2018-08-30T12:14:55.303Z,83.41
2018-08-30T12:15:55.335Z,83.99
2018-08-30T12:16:55.964Z,83.80
2018-08-30T12:17:55.397Z,84.14
2018-08-30T12:18:55.530Z,84.18
2018-08-30T12:19:55.444Z,84.18
2018-08-30T12:20:55.496Z,84.09
2018-08-30T12:21:55.504Z,83.41
2018-08-30T12:22:55.527Z,83.22
2018-08-30T12:23:55.563Z,83.03
2018-08-30T12:24:55.607Z,82.74
2018-08-30T12:25:55.625Z,82.60
2018-08-30T12:26:55.652Z,82.45
2018-08-30T12:27:55.674Z,82.64
2018-08-30T12:28:55.709Z,82.45
2018-08-30T12:29:55.755Z,82.06
2018-08-30T12:30:55.768Z,82.83
2018-08-30T12:31:55.779Z,82.45
2018-08-30T12:32:55.857Z,81.96
2018-08-30T12:33:55.856Z,82.54
2018-08-30T12:34:55.975Z,82.83
2018-08-30T12:35:56.048Z,82.06
2018-08-30T12:36:55.958Z,82.50
2018-08-30T12:37:55.935Z,82.21
2018-08-30T12:38:56.058Z,82.31
2018-08-30T12:39:56.137Z,82.02
2018-08-30T12:40:56.033Z,82.31
2018-08-30T12:41:56.095Z,82.21
2018-08-30T12:42:56.295Z,81.87
2018-08-30T12:43:56.172Z,82.70
2018-08-30T12:44:56.159Z,82.74
2018-08-30T12:45:56.184Z,82.26
2018-08-30T12:46:56.187Z,81.96
2018-08-30T12:47:56.292Z,81.77
2018-08-30T12:48:56.247Z,81.77
2018-08-30T12:49:56.300Z,81.63
2018-08-30T12:50:56.542Z,82.35
2018-08-30T12:51:56.452Z,82.93
2018-08-30T12:52:56.463Z,82.26
2018-08-30T12:53:56.381Z,82.26
2018-08-30T12:54:56.495Z,82.21